createdAt,value
2023-03-22T00:02:11.514Z,100854.31
2023-03-22T00:04:38.174Z,100858.91
2023-03-22T00:07:18.473Z,100847.16
2023-03-22T00:09:51.609Z,100852.84
2023-03-22T00:12:25.422Z,100843.25
2023-03-22T00:14:58.507Z,100853.69
2023-03-22T00:17:26.168Z,100845.09
2023-03-22T00:20:01.485Z,100856.44
2023-03-22T00:22:28.049Z,100845.19
2023-03-22T00:25:01.446Z,100851.38
2023-03-22T00:27:28.000Z,100848.09
2023-03-22T00:30:01.463Z,100842.03
2023-03-22T00:32:28.163Z,100844.22
2023-03-22T00:35:01.522Z,100833.19
2023-03-22T00:37:40.463Z,100845.41
2023-03-22T00:40:18.520Z,100853.50
2023-03-22T00:42:51.506Z,100844.03
2023-03-22T00:45:24.526Z,100833.03
2023-03-22T00:47:51.335Z,100845.28
2023-03-22T00:50:24.452Z,100841.88
2023-03-22T00:52:51.245Z,100839.34
2023-03-22T00:55:24.468Z,100831.56
2023-03-22T00:57:57.441Z,100844.66
2023-03-22T01:00:24.352Z,100834.13
2023-03-22T01:02:59.540Z,100832.16
2023-03-22T01:05:28.363Z,100834.13
2023-03-22T01:08:01.547Z,100819.34
2023-03-22T01:10:42.533Z,100824.31
2023-03-22T01:13:18.063Z,100829.63
2023-03-22T01:15:51.595Z,100809.16
2023-03-22T01:18:25.440Z,100815.59
2023-03-22T01:20:52.220Z,100806.66
2023-03-22T01:23:25.464Z,100807.41
2023-03-22T01:25:52.215Z,100813.47
2023-03-22T01:28:18.805Z,100804.00
2023-03-22T01:30:51.652Z,100805.56
2023-03-22T01:33:18.426Z,100793.00
2023-03-22T01:35:51.621Z,100799.91
2023-03-22T01:38:18.319Z,100789.38
2023-03-22T01:40:51.603Z,100803.31
2023-03-22T01:43:24.532Z,100795.06
2023-03-22T01:45:52.833Z,100789.75
2023-03-22T01:48:42.561Z,100764.47
2023-03-22T01:51:20.542Z,100774.16
2023-03-22T01:53:57.529Z,100777.31
2023-03-22T01:56:33.547Z,100772.00
2023-03-22T01:59:01.229Z,100768.47
2023-03-22T02:01:28.418Z,100759.53
2023-03-22T02:04:19.519Z,100753.13
2023-03-22T02:06:54.509Z,100750.44
2023-03-22T02:09:29.953Z,100749.59
2023-03-22T02:12:24.526Z,100744.06
2023-03-22T02:15:13.010Z,100741.41
2023-03-22T02:18:06.519Z,100701.94
2023-03-22T02:21:12.898Z,100715.25
2023-03-22T02:24:16.549Z,100728.09
2023-03-22T02:27:11.562Z,100721.19
2023-03-22T02:29:56.642Z,100725.88
2023-03-22T02:33:12.573Z,100717.19
2023-03-22T02:36:00.523Z,100714.53
2023-03-22T02:38:49.070Z,100708.59
2023-03-22T02:41:34.569Z,100715.09
2023-03-22T02:44:18.612Z,100707.25
2023-03-22T02:47:14.502Z,100703.84
2023-03-22T02:49:56.608Z,100716.34
2023-03-22T02:52:40.552Z,100704.84
2023-03-22T02:55:30.474Z,100697.47
2023-03-22T02:58:06.887Z,100676.56
2023-03-22T03:00:42.893Z,100694.69
2023-03-22T03:03:21.595Z,100678.72
2023-03-22T03:05:55.007Z,100668.31
2023-03-22T03:08:42.556Z,100677.25
2023-03-22T03:11:10.204Z,100680.41
2023-03-22T03:13:43.582Z,100668.06
2023-03-22T03:16:13.399Z,100667.09
2023-03-22T03:18:57.544Z,100666.41
2023-03-22T03:21:54.487Z,100652.72
2023-03-22T03:24:36.526Z,100649.09
2023-03-22T03:27:20.503Z,100651.63
2023-03-22T03:30:08.547Z,100652.38
2023-03-22T03:32:42.079Z,100647.88
2023-03-22T03:35:28.575Z,100642.66
2023-03-22T03:38:16.567Z,100624.44
2023-03-22T03:40:54.525Z,100620.31
2023-03-22T03:43:22.991Z,100636.28
2023-03-22T03:45:51.985Z,100632.28
2023-03-22T03:48:28.534Z,100626.09
2023-03-22T03:50:57.541Z,100646.78
2023-03-22T03:53:30.570Z,100647.63
2023-03-22T03:56:03.586Z,100637.69
2023-03-22T03:58:37.549Z,100641.22
2023-03-22T04:01:04.307Z,100635.03
2023-03-22T04:03:38.548Z,100635.03
2023-03-22T04:06:05.690Z,100623.91
2023-03-22T04:08:45.651Z,100634.91
2023-03-22T04:11:18.671Z,100626.81
2023-03-22T04:13:51.700Z,100628.25
2023-03-22T04:16:18.372Z,100619.44
2023-03-22T04:18:44.963Z,100628.25
2023-03-22T04:21:18.623Z,100621.72
2023-03-22T04:23:46.915Z,100622.78
2023-03-22T04:26:20.634Z,100624.38
2023-03-22T04:28:47.279Z,100621.84
2023-03-22T04:31:20.664Z,100624.97
2023-03-22T04:33:47.418Z,100611.66
2023-03-22T04:36:24.544Z,100614.06
2023-03-22T04:38:52.014Z,100599.22
2023-03-22T04:41:25.588Z,100604.53
2023-03-22T04:43:52.299Z,100608.66
2023-03-22T04:46:27.693Z,100615.78
2023-03-22T04:48:54.332Z,100614.66
2023-03-22T04:51:27.612Z,100617.31
2023-03-22T04:53:54.812Z,100613.97
2023-03-22T04:56:28.650Z,100599.94
2023-03-22T04:58:55.454Z,100603.19
2023-03-22T05:01:22.150Z,100606.59
2023-03-22T05:03:55.553Z,100604.75
2023-03-22T05:06:22.487Z,100593.38
2023-03-22T05:08:55.576Z,100601.25
2023-03-22T05:11:24.291Z,100593.38
2023-03-22T05:13:57.632Z,100588.56
2023-03-22T05:16:25.411Z,100586.97
2023-03-22T05:18:54.826Z,100597.75
2023-03-22T05:21:34.604Z,100600.81
2023-03-22T05:24:07.607Z,100601.88
2023-03-22T05:26:38.127Z,100592.69
2023-03-22T05:29:11.586Z,100578.19
2023-03-22T05:31:44.584Z,100601.69
2023-03-22T05:34:11.243Z,100599.00
2023-03-22T05:36:44.602Z,100594.03
2023-03-22T05:39:11.345Z,100591.97
2023-03-22T05:41:44.589Z,100574.56
2023-03-22T05:44:11.255Z,100577.34
2023-03-22T05:46:44.605Z,100575.06
2023-03-22T05:49:12.249Z,100583.53
2023-03-22T05:51:48.623Z,100590.78
2023-03-22T05:54:15.470Z,100563.69
2023-03-22T05:56:48.643Z,100576.28
2023-03-22T05:59:15.220Z,100568.03
2023-03-22T06:01:48.710Z,100565.38
2023-03-22T06:04:15.567Z,100567.78
2023-03-22T06:06:48.691Z,100574.66
2023-03-22T06:09:35.597Z,100571.28
2023-03-22T06:12:08.634Z,100573.94
2023-03-22T06:14:35.362Z,100575.06
2023-03-22T06:17:08.677Z,100568.03
2023-03-22T06:19:41.654Z,100569.00
2023-03-22T06:22:08.483Z,100561.38
2023-03-22T06:24:41.640Z,100560.31
2023-03-22T06:27:15.694Z,100570.69
2023-03-22T06:29:42.268Z,100564.50
2023-03-22T06:32:08.875Z,100573.59
2023-03-22T06:34:41.717Z,100571.91
2023-03-22T06:37:14.627Z,100568.16
2023-03-22T06:39:47.673Z,100571.66
2023-03-22T06:42:14.420Z,100565.75
2023-03-22T06:44:50.721Z,100560.19
2023-03-22T06:47:17.316Z,100567.94
2023-03-22T06:49:50.667Z,100565.38
2023-03-22T06:52:17.230Z,100554.13
2023-03-22T06:54:50.606Z,100566.22
2023-03-22T06:57:46.631Z,100545.06
2023-03-22T07:00:20.689Z,100558.97
2023-03-22T07:02:47.297Z,100563.22
2023-03-22T07:05:20.735Z,100574.56
2023-03-22T07:08:07.650Z,100584.47
2023-03-22T07:10:40.866Z,100573.59
2023-03-22T07:13:07.661Z,100576.47
2023-03-22T07:15:41.715Z,100565.47
2023-03-22T07:18:14.690Z,100545.72
2023-03-22T07:20:42.607Z,100553.53
2023-03-22T07:23:17.729Z,100544.56
2023-03-22T07:25:45.457Z,100550.31
2023-03-22T07:28:18.737Z,100545.22
2023-03-22T07:30:45.331Z,100537.28
2023-03-22T07:33:11.931Z,100553.44
2023-03-22T07:35:46.701Z,100548.56
2023-03-22T07:38:19.651Z,100539.06
2023-03-22T07:40:46.481Z,100544.56
2023-03-22T07:43:19.661Z,100547.72
2023-03-22T07:45:46.541Z,100541.78
2023-03-22T07:48:21.825Z,100531.72
2023-03-22T07:50:49.363Z,100545.94
2023-03-22T07:53:22.730Z,100529.34
2023-03-22T07:56:02.797Z,100554.22
2023-03-22T07:58:29.480Z,100527.97
2023-03-22T08:01:02.823Z,100545.28
2023-03-22T08:03:30.036Z,100540.53
2023-03-22T08:06:05.726Z,100545.72
2023-03-22T08:08:52.780Z,100555.16
2023-03-22T08:11:25.697Z,100549.75
2023-03-22T08:13:52.487Z,100547.38
2023-03-22T08:16:25.777Z,100532.97
2023-03-22T08:18:52.495Z,100546.31
2023-03-22T08:21:25.715Z,100545.88
2023-03-22T08:23:52.440Z,100555.94
2023-03-22T08:26:25.692Z,100549.91
2023-03-22T08:28:58.745Z,100552.69
2023-03-22T08:31:32.805Z,100547.13
2023-03-22T08:33:59.533Z,100547.13
2023-03-22T08:36:32.715Z,100548.16
2023-03-22T08:38:59.523Z,100552.50
2023-03-22T08:41:32.810Z,100550.84
2023-03-22T08:44:05.765Z,100552.88
2023-03-22T08:46:32.497Z,100544.88
2023-03-22T08:49:07.738Z,100547.84
2023-03-22T08:51:34.477Z,100550.13
2023-03-22T08:54:08.709Z,100565.28
2023-03-22T08:56:38.392Z,100552.06
2023-03-22T08:59:13.780Z,100559.34
2023-03-22T09:01:40.659Z,100563.16
2023-03-22T09:04:13.822Z,100557.94
2023-03-22T09:06:43.001Z,100562.16
2023-03-22T09:09:22.773Z,100566.63
2023-03-22T09:11:49.323Z,100560.34
2023-03-22T09:14:22.721Z,100553.00
2023-03-22T09:16:49.325Z,100553.44
2023-03-22T09:19:22.677Z,100537.88
2023-03-22T09:21:50.222Z,100527.13
2023-03-22T09:24:23.778Z,100537.72
2023-03-22T09:26:56.747Z,100531.41
2023-03-22T09:29:23.354Z,100534.69
2023-03-22T09:31:56.779Z,100521.75
2023-03-22T09:34:23.332Z,100531.88
2023-03-22T09:36:58.504Z,100515.16
2023-03-22T09:39:25.247Z,100513.91
2023-03-22T09:42:02.742Z,100529.63
2023-03-22T09:44:34.610Z,100506.59
2023-03-22T09:47:10.783Z,100515.22
2023-03-22T09:49:53.727Z,100521.13
2023-03-22T09:52:21.843Z,100527.75
2023-03-22T09:54:55.771Z,100515.06
2023-03-22T09:57:43.925Z,100530.41
2023-03-22T10:00:42.776Z,100509.84
2023-03-22T10:03:43.793Z,100508.72
2023-03-22T10:06:10.392Z,100517.31
2023-03-22T10:09:20.766Z,100513.25
2023-03-22T10:12:07.831Z,100525.34
2023-03-22T10:14:47.785Z,100526.19
2023-03-22T10:17:25.668Z,100514.81
2023-03-22T10:20:07.798Z,100510.28
2023-03-22T10:22:51.624Z,100521.97
2023-03-22T10:25:30.736Z,100527.59
2023-03-22T10:28:03.744Z,100510.88
2023-03-22T10:30:44.813Z,100512.28
2023-03-22T10:33:32.798Z,100515.53
2023-03-22T10:36:07.816Z,100493.28
2023-03-22T10:38:48.812Z,100512.41
2023-03-22T10:41:18.779Z,100518.59
2023-03-22T10:43:56.803Z,100511.84
2023-03-22T10:46:33.829Z,100517.72
2023-03-22T10:49:01.825Z,100517.44
2023-03-22T10:51:40.753Z,100520.41
2023-03-22T10:54:13.565Z,100514.31
2023-03-22T10:56:46.742Z,100524.19
2023-03-22T10:59:41.967Z,100526.75
2023-03-22T11:02:36.884Z,100535.56
2023-03-22T11:05:07.199Z,100541.16
2023-03-22T11:07:41.744Z,100528.63
2023-03-22T11:10:33.829Z,100531.56
2023-03-22T11:13:15.839Z,100532.25
2023-03-22T11:15:51.829Z,100531.78
2023-03-22T11:18:25.905Z,100524.97
2023-03-22T11:21:04.635Z,100544.50
2023-03-22T11:23:40.804Z,100531.72
2023-03-22T11:26:17.809Z,100534.91
2023-03-22T11:28:57.783Z,100532.66
2023-03-22T11:31:26.114Z,100542.19
2023-03-22T11:34:04.824Z,100538.94
2023-03-22T11:36:31.463Z,100535.31
2023-03-22T11:39:06.890Z,100533.47
2023-03-22T11:41:43.806Z,100542.34
2023-03-22T11:44:14.465Z,100531.66
2023-03-22T11:46:56.827Z,100525.09
2023-03-22T11:49:33.863Z,100536.34
2023-03-22T11:52:16.935Z,100529.06
2023-03-22T11:54:52.855Z,100523.31
2023-03-22T11:57:31.928Z,100518.97
2023-03-22T12:00:20.097Z,100520.69
2023-03-22T12:03:12.935Z,100529.50
2023-03-22T12:05:51.035Z,100529.41
2023-03-22T12:09:02.857Z,100525.44
2023-03-22T12:11:55.796Z,100531.50
2023-03-22T12:14:34.700Z,100526.16
2023-03-22T12:17:23.814Z,100527.88
2023-03-22T12:20:04.851Z,100519.16
2023-03-22T12:22:43.799Z,100533.22
2023-03-22T12:25:25.822Z,100523.06
2023-03-22T12:27:59.391Z,100518.44
2023-03-22T12:30:42.643Z,100511.16
2023-03-22T12:33:23.148Z,100521.97
2023-03-22T12:36:01.993Z,100513.78
2023-03-22T12:38:44.814Z,100522.50
2023-03-22T12:41:22.864Z,100502.53
2023-03-22T12:43:56.061Z,100505.72
2023-03-22T12:46:31.903Z,100521.50
2023-03-22T12:49:11.749Z,100532.28
2023-03-22T12:51:44.815Z,100515.38
2023-03-22T12:54:14.169Z,100528.47
2023-03-22T12:56:51.830Z,100515.66
2023-03-22T12:59:29.905Z,100533.09
2023-03-22T13:02:23.855Z,100525.09
2023-03-22T13:04:54.517Z,100518.19
2023-03-22T13:07:58.892Z,100534.91
2023-03-22T13:10:45.946Z,100522.81
2023-03-22T13:13:21.873Z,100522.56
2023-03-22T13:16:19.916Z,100521.28
2023-03-22T13:18:55.894Z,100511.34
2023-03-22T13:21:32.915Z,100521.16
2023-03-22T13:24:21.896Z,100518.75
2023-03-22T13:26:58.598Z,100534.63
2023-03-22T13:29:44.889Z,100532.81
2023-03-22T13:32:30.535Z,100531.97
2023-03-22T13:35:03.953Z,100529.44
2023-03-22T13:37:37.647Z,100534.91
2023-03-22T13:40:36.844Z,100528.59
2023-03-22T13:43:27.848Z,100528.59
2023-03-22T13:46:09.738Z,100529.56
2023-03-22T13:48:54.930Z,100526.91
2023-03-22T13:51:25.786Z,100526.06
2023-03-22T13:54:07.864Z,100526.19
2023-03-22T13:56:53.022Z,100529.56
2023-03-22T13:59:37.885Z,100534.34
2023-03-22T14:02:31.037Z,100527.00
2023-03-22T14:05:03.947Z,100525.53
2023-03-22T14:07:53.217Z,100527.75
2023-03-22T14:10:34.854Z,100531.78
2023-03-22T14:13:17.920Z,100517.44
2023-03-22T14:16:04.044Z,100540.94
2023-03-22T14:18:32.753Z,100535.88
2023-03-22T14:21:28.020Z,100541.34
2023-03-22T14:52:43.086Z,100525.69
2023-03-22T14:55:18.362Z,100523.16
2023-03-22T14:58:03.062Z,100526.75
2023-03-22T15:00:31.511Z,100514.13
2023-03-22T15:03:12.985Z,100496.81
2023-03-22T15:05:43.280Z,100514.69
2023-03-22T15:08:32.236Z,100505.31
2023-03-22T15:11:16.103Z,100494.16
2023-03-22T15:13:51.692Z,100492.94
2023-03-22T15:16:23.319Z,100480.91
2023-03-22T15:19:02.133Z,100449.84
2023-03-22T15:21:31.750Z,100483.09
2023-03-22T15:26:59.189Z,100453.09
2023-03-22T15:29:35.166Z,100454.38
2023-03-22T15:32:13.358Z,100438.19
2023-03-22T15:37:49.702Z,100457.63
2023-03-22T15:40:49.234Z,100463.84
2023-03-22T15:43:38.166Z,100452.31
2023-03-22T15:46:19.775Z,100445.69
2023-03-22T15:49:12.191Z,100473.13
2023-03-22T15:51:49.154Z,100468.53
2023-03-22T15:54:35.121Z,100447.31
2023-03-22T15:58:04.617Z,100451.50
2023-03-22T16:03:49.299Z,100468.13
2023-03-22T16:06:17.398Z,100479.38
2023-03-22T16:08:51.214Z,100479.38
2023-03-22T16:11:21.329Z,100469.41
2023-03-22T16:13:55.314Z,100446.66
2023-03-22T16:16:35.695Z,100455.50
2023-03-22T16:19:18.975Z,100473.22
2023-03-22T16:21:46.480Z,100448.50
2023-03-22T16:24:20.090Z,100474.09
2023-03-22T16:27:11.215Z,100458.88
2023-03-22T16:29:45.095Z,100448.75
2023-03-22T16:32:29.562Z,100464.50
2023-03-22T16:35:06.393Z,100450.41
2023-03-22T16:37:42.191Z,100453.41
2023-03-22T16:40:22.546Z,100467.88
2023-03-22T16:42:53.047Z,100442.25
2023-03-22T16:45:35.124Z,100450.09
2023-03-22T16:48:02.740Z,100455.56
2023-03-22T16:50:42.380Z,100454.97
2023-03-22T16:53:28.414Z,100449.31
2023-03-22T16:56:04.191Z,100468.88
2023-03-22T16:58:34.240Z,100441.66
2023-03-22T17:01:10.154Z,100461.41
2023-03-22T17:03:37.661Z,100452.69
2023-03-22T17:06:17.236Z,100423.56
2023-03-22T17:08:51.238Z,100459.00
2023-03-22T17:11:28.360Z,100449.84
2023-03-22T17:14:11.368Z,100423.28
2023-03-22T17:16:48.313Z,100450.28
2023-03-22T17:19:19.573Z,100450.59
2023-03-22T17:21:53.349Z,100434.09
2023-03-22T17:24:28.231Z,100440.00
2023-03-22T17:27:15.271Z,100421.72
2023-03-22T17:29:51.763Z,100432.38
2023-03-22T17:32:39.492Z,100434.75
2023-03-22T17:35:17.220Z,100416.16
2023-03-22T17:37:49.344Z,100427.53
2023-03-22T17:43:42.378Z,100445.81
2023-03-22T17:46:52.371Z,100426.88
2023-03-22T17:49:04.163Z,100410.31
2023-03-22T17:51:40.161Z,100423.97
2023-03-22T17:54:48.886Z,100418.53
2023-03-22T17:57:34.784Z,100412.88
2023-03-22T17:59:57.847Z,100390.41
2023-03-22T18:02:38.567Z,100406.44
2023-03-22T18:08:24.595Z,100391.81
2023-03-22T18:10:49.687Z,100393.75
2023-03-22T18:13:25.418Z,100400.53
2023-03-22T18:15:55.441Z,100423.84
2023-03-22T18:18:31.297Z,100423.72
2023-03-22T18:21:10.266Z,100407.88
2023-03-22T18:23:48.359Z,100441.06
2023-03-22T18:26:29.625Z,100402.91
2023-03-22T18:29:05.312Z,100442.59
2023-03-22T18:31:35.741Z,100436.31
2023-03-22T18:34:10.292Z,100415.91
2023-03-22T18:36:45.225Z,100417.41
2023-03-22T18:40:04.603Z,100416.88
2023-03-22T18:42:19.388Z,100410.38
2023-03-22T18:44:55.307Z,100409.59
2023-03-22T18:47:22.884Z,100419.31
2023-03-22T18:50:02.283Z,100405.13
2023-03-22T18:52:48.927Z,100404.06
2023-03-22T18:55:29.968Z,100429.56
2023-03-22T18:58:10.188Z,100409.47
2023-03-22T19:00:46.247Z,100430.69
2023-03-22T19:03:13.854Z,100392.25
2023-03-22T19:05:48.930Z,100384.97
2023-03-22T19:08:27.889Z,100382.28
2023-03-22T19:19:21.960Z,100378.38
2023-03-22T19:22:40.846Z,100402.97
2023-03-22T19:43:41.094Z,100354.06
2023-03-22T19:46:08.988Z,100359.38
2023-03-22T19:48:43.680Z,100358.53
2023-03-22T19:51:11.081Z,100352.50
2023-03-22T19:54:18.643Z,100352.38
2023-03-22T19:56:41.610Z,100333.00
2023-03-22T19:59:17.002Z,100336.16
2023-03-22T20:01:45.025Z,100346.06
2023-03-22T20:04:19.509Z,100347.66
2023-03-22T20:06:55.108Z,100352.28
2023-03-22T20:09:29.362Z,100360.25
2023-03-22T20:12:03.368Z,100361.13
2023-03-22T20:14:37.502Z,100347.56
2023-03-22T20:17:06.913Z,100346.72
2023-03-22T20:19:43.196Z,100357.47
2023-03-22T20:22:16.425Z,100346.19
2023-03-22T20:24:44.109Z,100360.25
2023-03-22T20:27:18.306Z,100355.78
2023-03-22T20:29:45.222Z,100352.38
2023-03-22T20:32:19.299Z,100352.38
2023-03-22T20:34:46.298Z,100352.13
2023-03-22T20:37:29.512Z,100354.06
2023-03-22T20:39:56.784Z,100348.16
2023-03-22T20:42:38.368Z,100361.78
2023-03-22T20:45:12.543Z,100359.38
2023-03-22T20:47:46.394Z,100360.25
2023-03-22T20:50:21.241Z,100352.38
2023-03-22T20:52:48.433Z,100352.28
2023-03-22T20:55:25.204Z,100348.00
2023-03-22T20:57:53.012Z,100344.53
2023-03-22T21:00:28.385Z,100342.09
2023-03-22T21:02:56.478Z,100329.50
2023-03-22T21:05:30.240Z,100334.97
2023-03-22T21:07:57.527Z,100334.69
2023-03-22T21:10:31.289Z,100322.03
2023-03-22T21:12:58.013Z,100330.34
2023-03-22T21:15:31.214Z,100326.69
2023-03-22T21:18:05.250Z,100331.06
2023-03-22T21:20:39.322Z,100323.06
2023-03-22T21:23:06.053Z,100328.31
2023-03-22T21:25:33.057Z,100325.75
2023-03-22T21:28:06.261Z,100306.66
2023-03-22T21:30:34.217Z,100313.75
2023-03-22T21:33:08.268Z,100320.75
2023-03-22T21:35:35.933Z,100320.75
2023-03-22T21:38:10.766Z,100319.75
2023-03-22T21:40:38.271Z,100309.00
2023-03-22T21:43:25.495Z,100305.47
2023-03-22T21:46:11.007Z,100305.47
2023-03-22T21:48:57.411Z,100297.75
2023-03-22T21:51:28.874Z,100299.88
2023-03-22T21:54:03.327Z,100289.94
2023-03-22T21:56:38.631Z,100276.75
2023-03-22T21:59:08.350Z,100274.66
2023-03-22T22:01:45.898Z,100264.13
2023-03-22T22:04:20.323Z,100266.38
2023-03-22T22:06:54.748Z,100277.75
2023-03-22T22:09:29.528Z,100284.91
2023-03-22T22:12:03.640Z,100255.28
2023-03-22T22:14:31.925Z,100269.03
2023-03-22T22:17:05.408Z,100231.19
2023-03-22T22:19:32.740Z,100232.31
2023-03-22T22:22:07.340Z,100244.09
2023-03-22T22:24:42.201Z,100259.94
2023-03-22T22:27:16.509Z,100248.44
2023-03-22T22:29:43.744Z,100261.38
2023-03-22T22:32:18.496Z,100234.03
2023-03-22T22:34:46.078Z,100245.25
2023-03-22T22:37:19.541Z,100238.22
2023-03-22T22:39:47.871Z,100246.06
2023-03-22T22:42:28.396Z,100237.25
2023-03-22T22:44:55.233Z,100242.59
2023-03-22T22:47:29.481Z,100251.16
2023-03-22T22:49:57.448Z,100242.44
2023-03-22T22:52:24.589Z,100228.13
2023-03-22T22:54:58.465Z,100240.63
2023-03-22T22:57:25.667Z,100237.97
2023-03-22T22:59:59.381Z,100234.16
2023-03-22T23:02:29.105Z,100225.31
2023-03-22T23:05:09.442Z,100227.88
2023-03-22T23:07:37.414Z,100217.31
2023-03-22T23:10:12.624Z,100217.75
2023-03-22T23:12:41.161Z,100229.97
2023-03-22T23:15:27.093Z,100203.44
2023-03-22T23:18:03.172Z,100214.13
2023-03-22T23:20:45.736Z,100222.81
2023-03-22T23:23:19.298Z,100208.91
2023-03-22T23:26:00.531Z,100213.56
2023-03-22T23:28:34.008Z,100220.84
2023-03-22T23:31:15.633Z,100214.81
2023-03-22T23:33:44.294Z,100204.03
2023-03-22T23:36:26.616Z,100197.41
2023-03-22T23:38:56.462Z,100205.00
2023-03-22T23:41:32.562Z,100209.22
2023-03-22T23:44:06.695Z,100196.72
2023-03-22T23:46:40.873Z,100181.72
2023-03-22T23:49:08.990Z,100181.13
2023-03-22T23:51:43.611Z,100180.88
2023-03-22T23:54:11.215Z,100178.78
2023-03-22T23:56:44.346Z,100177.22
2023-03-22T23:59:12.198Z,100162.78
